sensor_id;sensor_type;location;lat;lon;timestamp;P1;P2;P0
54021;PMS7003;39936;51.058;17.220;2023-03-11T00:01:48;4;2;1
54021;PMS7003;39936;51.058;17.220;2023-03-11T00:06:21;7;6;3
54021;PMS7003;39936;51.058;17.220;2023-03-11T00:09:38;2;2;0
54021;PMS7003;39936;51.058;17.220;2023-03-11T00:12:58;4;3;2
54021;PMS7003;39936;51.058;17.220;2023-03-11T00:16:21;4;4;2
54021;PMS7003;39936;51.058;17.220;2023-03-11T00:20:37;4;2;1
54021;PMS7003;39936;51.058;17.220;2023-03-11T00:24:18;3;3;1
54021;PMS7003;39936;51.058;17.220;2023-03-11T00:31:50;2;1;0
54021;PMS7003;39936;51.058;17.220;2023-03-11T00:36:03;4;3;1
54021;PMS7003;39936;51.058;17.220;2023-03-11T00:39:53;2;2;1
54021;PMS7003;39936;51.058;17.220;2023-03-11T00:43:29;2;0;0
54021;PMS7003;39936;51.058;17.220;2023-03-11T00:47:45;1;1;1
54021;PMS7003;39936;51.058;17.220;2023-03-11T00:51:46;2;2;0
54021;PMS7003;39936;51.058;17.220;2023-03-11T00:55:30;2;2;1
54021;PMS7003;39936;51.058;17.220;2023-03-11T00:59:08;1;1;0
54021;PMS7003;39936;51.058;17.220;2023-03-11T01:02:49;2;1;0
54021;PMS7003;39936;51.058;17.220;2023-03-11T01:06:53;0;0;0
54021;PMS7003;39936;51.058;17.220;2023-03-11T01:10:16;1;1;0
54021;PMS7003;39936;51.058;17.220;2023-03-11T01:13:57;1;1;0
54021;PMS7003;39936;51.058;17.220;2023-03-11T01:18:16;1;1;0
54021;PMS7003;39936;51.058;17.220;2023-03-11T01:22:14;4;4;1
54021;PMS7003;39936;51.058;17.220;2023-03-11T01:25:54;3;1;0
54021;PMS7003;39936;51.058;17.220;2023-03-11T01:29:37;3;3;2
54021;PMS7003;39936;51.058;17.220;2023-03-11T01:33:51;4;3;1
54021;PMS7003;39936;51.058;17.220;2023-03-11T01:37:22;7;7;5
54021;PMS7003;39936;51.058;17.220;2023-03-11T01:41:01;7;5;4
54021;PMS7003;39936;51.058;17.220;2023-03-11T01:44:54;3;1;0
54021;PMS7003;39936;51.058;17.220;2023-03-11T01:48:15;3;3;1
54021;PMS7003;39936;51.058;17.220;2023-03-11T01:52:11;1;1;0
54021;PMS7003;39936;51.058;17.220;2023-03-11T01:55:52;1;1;0
54021;PMS7003;39936;51.058;17.220;2023-03-11T01:59:35;4;1;0
54021;PMS7003;39936;51.058;17.220;2023-03-11T02:03:17;2;2;1
54021;PMS7003;39936;51.058;17.220;2023-03-11T02:07:06;3;2;1
54021;PMS7003;39936;51.058;17.220;2023-03-11T02:10:48;3;3;1
54021;PMS7003;39936;51.058;17.220;2023-03-11T02:15:07;3;3;2
54021;PMS7003;39936;51.058;17.220;2023-03-11T02:19:03;4;4;2
54021;PMS7003;39936;51.058;17.220;2023-03-11T02:22:42;4;3;2
54021;PMS7003;39936;51.058;17.220;2023-03-11T02:30:23;5;4;2
54021;PMS7003;39936;51.058;17.220;2023-03-11T02:34:22;7;6;3
54021;PMS7003;39936;51.058;17.220;2023-03-11T02:37:54;4;3;2
54021;PMS7003;39936;51.058;17.220;2023-03-11T02:41:34;3;3;2
54021;PMS7003;39936;51.058;17.220;2023-03-11T02:45:11;3;3;1
54021;PMS7003;39936;51.058;17.220;2023-03-11T02:48:53;1;1;1
54021;PMS7003;39936;51.058;17.220;2023-03-11T02:52:47;2;2;1
54021;PMS7003;39936;51.058;17.220;2023-03-11T02:56:06;4;4;1
54021;PMS7003;39936;51.058;17.220;2023-03-11T02:59:52;6;5;3
54021;PMS7003;39936;51.058;17.220;2023-03-11T03:03:14;6;5;2
54021;PMS7003;39936;51.058;17.220;2023-03-11T03:06:50;7;6;3
54021;PMS7003;39936;51.058;17.220;2023-03-11T03:10:13;4;4;3
54021;PMS7003;39936;51.058;17.220;2023-03-11T03:17:26;5;5;3
54021;PMS7003;39936;51.058;17.220;2023-03-11T03:21:06;6;4;3
54021;PMS7003;39936;51.058;17.220;2023-03-11T03:24:43;7;6;3
54021;PMS7003;39936;51.058;17.220;2023-03-11T03:28:12;0;0;0
54021;PMS7003;39936;51.058;17.220;2023-03-11T03:31:49;0;0;0
54021;PMS7003;39936;51.058;17.220;2023-03-11T03:35:52;0;0;0
54021;PMS7003;39936;51.058;17.220;2023-03-11T03:39:12;0;0;0
54021;PMS7003;39936;51.058;17.220;2023-03-11T03:42:29;1;0;0
54021;PMS7003;39936;51.058;17.220;2023-03-11T03:46:02;0;0;0
54021;PMS7003;39936;51.058;17.220;2023-03-11T03:49:43;0;0;0
54021;PMS7003;39936;51.058;17.220;2023-03-11T03:53:26;0;0;0
54021;PMS7003;39936;51.058;17.220;2023-03-11T03:57:04;0;0;0
54021;PMS7003;39936;51.058;17.220;2023-03-11T04:00:59;0;0;0
54021;PMS7003;39936;51.058;17.220;2023-03-11T04:04:48;0;0;0
54021;PMS7003;39936;51.058;17.220;2023-03-11T04:12:32;0;0;0
54021;PMS7003;39936;51.058;17.220;2023-03-11T04:16:25;0;0;0
54021;PMS7003;39936;51.058;17.220;2023-03-11T04:20:37;0;0;0
54021;PMS7003;39936;51.058;17.220;2023-03-11T04:24:10;0;0;0
54021;PMS7003;39936;51.058;17.220;2023-03-11T04:27:41;0;0;0
54021;PMS7003;39936;51.058;17.220;2023-03-11T04:31:26;0;0;0
54021;PMS7003;39936;51.058;17.220;2023-03-11T04:34:47;0;0;0
54021;PMS7003;39936;51.058;17.220;2023-03-11T04:38:23;0;0;0
54021;PMS7003;39936;51.058;17.220;2023-03-11T04:41:44;1;0;0
54021;PMS7003;39936;51.058;17.220;2023-03-11T04:45:45;0;0;0
54021;PMS7003;39936;51.058;17.220;2023-03-11T04:49:38;0;0;0
54021;PMS7003;39936;51.058;17.220;2023-03-11T04:53:17;0;0;0
54021;PMS7003;39936;51.058;17.220;2023-03-11T04:56:35;0;0;0
54021;PMS7003;39936;51.058;17.220;2023-03-11T05:00:00;0;0;0
54021;PMS7003;39936;51.058;17.220;2023-03-11T05:03:49;0;0;0
54021;PMS7003;39936;51.058;17.220;2023-03-11T05:07:10;0;0;0
54021;PMS7003;39936;51.058;17.220;2023-03-11T05:10:58;0;0;0
54021;PMS7003;39936;51.058;17.220;2023-03-11T05:14:21;0;0;0
54021;PMS7003;39936;51.058;17.220;2023-03-11T05:18:16;0;0;0
54021;PMS7003;39936;51.058;17.220;2023-03-11T05:22:19;1;1;0
54021;PMS7003;39936;51.058;17.220;2023-03-11T05:26:00;1;1;0
54021;PMS7003;39936;51.058;17.220;2023-03-11T05:29:50;0;0;0
54021;PMS7003;39936;51.058;17.220;2023-03-11T05:33:14;1;1;0
54021;PMS7003;39936;51.058;17.220;2023-03-11T05:37:06;1;0;0
54021;PMS7003;39936;51.058;17.220;2023-03-11T05:40:24;0;0;0
54021;PMS7003;39936;51.058;17.220;2023-03-11T05:43:43;1;0;0
54021;PMS7003;39936;51.058;17.220;2023-03-11T05:47:23;2;1;0
54021;PMS7003;39936;51.058;17.220;2023-03-11T05:51:15;0;0;0
54021;PMS7003;39936;51.058;17.220;2023-03-11T05:54:36;3;2;0
54021;PMS7003;39936;51.058;17.220;2023-03-11T05:58:13;2;2;2
54021;PMS7003;39936;51.058;17.220;2023-03-11T06:01:34;4;2;1
54021;PMS7003;39936;51.058;17.220;2023-03-11T06:05:11;1;1;1
54021;PMS7003;39936;51.058;17.220;2023-03-11T06:08:33;2;2;1
54021;PMS7003;39936;51.058;17.220;2023-03-11T06:12:27;5;4;2
54021;PMS7003;39936;51.058;17.220;2023-03-11T06:16:07;2;2;1
54021;PMS7003;39936;51.058;17.220;2023-03-11T06:20:00;3;3;1
54021;PMS7003;39936;51.058;17.220;2023-03-11T06:23:35;6;3;1
54021;PMS7003;39936;51.058;17.220;2023-03-11T06:27:43;6;5;2
54021;PMS7003;39936;51.058;17.220;2023-03-11T06:31:08;7;7;4
54021;PMS7003;39936;51.058;17.220;2023-03-11T06:34:33;10;9;5
54021;PMS7003;39936;51.058;17.220;2023-03-11T06:38:08;10;8;4
54021;PMS7003;39936;51.058;17.220;2023-03-11T06:41:51;8;7;4
54021;PMS7003;39936;51.058;17.220;2023-03-11T06:49:20;13;10;7
54021;PMS7003;39936;51.058;17.220;2023-03-11T06:53:26;11;10;6
54021;PMS7003;39936;51.058;17.220;2023-03-11T06:56:58;9;8;6
54021;PMS7003;39936;51.058;17.220;2023-03-11T07:01:06;9;6;3
54021;PMS7003;39936;51.058;17.220;2023-03-11T07:05:12;11;8;6
54021;PMS7003;39936;51.058;17.220;2023-03-11T07:09:38;12;10;6
54021;PMS7003;39936;51.058;17.220;2023-03-11T07:13:26;9;8;5
54021;PMS7003;39936;51.058;17.220;2023-03-11T07:17:31;7;5;3
54021;PMS7003;39936;51.058;17.220;2023-03-11T07:21:26;12;8;6
54021;PMS7003;39936;51.058;17.220;2023-03-11T07:25:03;11;6;4
54021;PMS7003;39936;51.058;17.220;2023-03-11T07:28:26;7;5;3
54021;PMS7003;39936;51.058;17.220;2023-03-11T07:31:58;5;3;1
54021;PMS7003;39936;51.058;17.220;2023-03-11T07:39:47;4;4;3
54021;PMS7003;39936;51.058;17.220;2023-03-11T07:43:24;3;3;3
54021;PMS7003;39936;51.058;17.220;2023-03-11T07:54:49;6;5;1
54021;PMS7003;39936;51.058;17.220;2023-03-11T07:58:26;8;6;3
54021;PMS7003;39936;51.058;17.220;2023-03-11T08:02:02;15;12;8
54021;PMS7003;39936;51.058;17.220;2023-03-11T08:14:36;14;12;7
54021;PMS7003;39936;51.058;17.220;2023-03-11T08:18:38;15;13;9
54021;PMS7003;39936;51.058;17.220;2023-03-11T08:25:54;9;6;3
54021;PMS7003;39936;51.058;17.220;2023-03-11T08:33:25;10;7;5
54021;PMS7003;39936;51.058;17.220;2023-03-11T08:36:54;9;6;4
54021;PMS7003;39936;51.058;17.220;2023-03-11T08:40:36;6;6;4
54021;PMS7003;39936;51.058;17.220;2023-03-11T08:45:08;10;8;5
54021;PMS7003;39936;51.058;17.220;2023-03-11T08:48:25;11;8;5
54021;PMS7003;39936;51.058;17.220;2023-03-11T08:52:19;13;8;5
54021;PMS7003;39936;51.058;17.220;2023-03-11T08:55:59;9;6;4
54021;PMS7003;39936;51.058;17.220;2023-03-11T08:59:22;4;4;2
54021;PMS7003;39936;51.058;17.220;2023-03-11T09:03:15;1;1;1
54021;PMS7003;39936;51.058;17.220;2023-03-11T09:07:10;5;5;3
54021;PMS7003;39936;51.058;17.220;2023-03-11T09:14:51;9;4;3
54021;PMS7003;39936;51.058;17.220;2023-03-11T09:18:37;9;5;2
54021;PMS7003;39936;51.058;17.220;2023-03-11T09:22:40;7;7;5
54021;PMS7003;39936;51.058;17.220;2023-03-11T09:26:14;5;5;4
54021;PMS7003;39936;51.058;17.220;2023-03-11T09:29:31;7;7;3
54021;PMS7003;39936;51.058;17.220;2023-03-11T09:32:56;7;6;3
54021;PMS7003;39936;51.058;17.220;2023-03-11T09:36:41;4;2;1
54021;PMS7003;39936;51.058;17.220;2023-03-11T09:41:00;4;3;1
54021;PMS7003;39936;51.058;17.220;2023-03-11T09:44:34;5;4;2
54021;PMS7003;39936;51.058;17.220;2023-03-11T09:52:36;5;4;2
54021;PMS7003;39936;51.058;17.220;2023-03-11T09:56:29;7;5;3
54021;PMS7003;39936;51.058;17.220;2023-03-11T09:59:53;1;1;1
54021;PMS7003;39936;51.058;17.220;2023-03-11T10:03:16;6;6;4
54021;PMS7003;39936;51.058;17.220;2023-03-11T10:07:01;6;6;4
54021;PMS7003;39936;51.058;17.220;2023-03-11T10:26:44;2;2;1
54021;PMS7003;39936;51.058;17.220;2023-03-11T10:38:30;4;4;2
54021;PMS7003;39936;51.058;17.220;2023-03-11T10:45:56;7;2;1
54021;PMS7003;39936;51.058;17.220;2023-03-11T10:49:36;8;8;4
54021;PMS7003;39936;51.058;17.220;2023-03-11T10:53:31;8;7;4
54021;PMS7003;39936;51.058;17.220;2023-03-11T10:57:22;6;6;4
54021;PMS7003;39936;51.058;17.220;2023-03-11T11:01:29;6;6;5
54021;PMS7003;39936;51.058;17.220;2023-03-11T11:08:43;6;5;3
54021;PMS7003;39936;51.058;17.220;2023-03-11T11:12:15;2;2;1
54021;PMS7003;39936;51.058;17.220;2023-03-11T11:19:29;8;6;4
54021;PMS7003;39936;51.058;17.220;2023-03-11T11:22:52;10;9;6
54021;PMS7003;39936;51.058;17.220;2023-03-11T11:26:30;10;9;6
54021;PMS7003;39936;51.058;17.220;2023-03-11T11:33:56;9;6;5
54021;PMS7003;39936;51.058;17.220;2023-03-11T11:37:58;11;8;5
54021;PMS7003;39936;51.058;17.220;2023-03-11T11:41:21;8;8;5
54021;PMS7003;39936;51.058;17.220;2023-03-11T11:52:54;15;11;8
54021;PMS7003;39936;51.058;17.220;2023-03-11T11:56:25;11;10;6
54021;PMS7003;39936;51.058;17.220;2023-03-11T12:00:17;11;10;6
54021;PMS7003;39936;51.058;17.220;2023-03-11T12:19:52;8;8;5
54021;PMS7003;39936;51.058;17.220;2023-03-11T12:23:45;6;5;3
54021;PMS7003;39936;51.058;17.220;2023-03-11T12:31:08;10;7;4
54021;PMS7003;39936;51.058;17.220;2023-03-11T12:35:32;8;7;3
54021;PMS7003;39936;51.058;17.220;2023-03-11T12:39:27;6;5;3
54021;PMS7003;39936;51.058;17.220;2023-03-11T12:42:53;6;6;4
54021;PMS7003;39936;51.058;17.220;2023-03-11T12:46:19;2;2;1
54021;PMS7003;39936;51.058;17.220;2023-03-11T12:49:46;5;4;2
54021;PMS7003;39936;51.058;17.220;2023-03-11T12:53:16;2;2;0
54021;PMS7003;39936;51.058;17.220;2023-03-11T12:56:54;6;4;2
54021;PMS7003;39936;51.058;17.220;2023-03-11T13:04:11;4;3;2
54021;PMS7003;39936;51.058;17.220;2023-03-11T13:11:54;13;10;6
54021;PMS7003;39936;51.058;17.220;2023-03-11T13:15:24;13;9;5
54021;PMS7003;39936;51.058;17.220;2023-03-11T13:23:44;13;11;5
54021;PMS7003;39936;51.058;17.220;2023-03-11T13:43:22;15;12;8
54021;PMS7003;39936;51.058;17.220;2023-03-11T13:47:25;10;9;6
54021;PMS7003;39936;51.058;17.220;2023-03-11T13:54:46;7;5;2
54021;PMS7003;39936;51.058;17.220;2023-03-11T13:58:24;9;8;5
54021;PMS7003;39936;51.058;17.220;2023-03-11T14:05:33;6;5;3
54021;PMS7003;39936;51.058;17.220;2023-03-11T14:09:36;8;7;5
54021;PMS7003;39936;51.058;17.220;2023-03-11T14:17:21;9;7;7
54021;PMS7003;39936;51.058;17.220;2023-03-11T14:21:10;4;3;2
54021;PMS7003;39936;51.058;17.220;2023-03-11T14:28:53;3;2;0
54021;PMS7003;39936;51.058;17.220;2023-03-11T14:32:31;3;3;1
54021;PMS7003;39936;51.058;17.220;2023-03-11T14:36:15;8;8;5
54021;PMS7003;39936;51.058;17.220;2023-03-11T14:43:46;8;5;2
54021;PMS7003;39936;51.058;17.220;2023-03-11T14:47:39;2;2;0
54021;PMS7003;39936;51.058;17.220;2023-03-11T14:51:13;9;9;7
54021;PMS7003;39936;51.058;17.220;2023-03-11T14:54:59;5;5;3
54021;PMS7003;39936;51.058;17.220;2023-03-11T15:02:11;6;5;3
54021;PMS7003;39936;51.058;17.220;2023-03-11T15:05:36;11;9;5
54021;PMS7003;39936;51.058;17.220;2023-03-11T15:09:18;3;2;1
54021;PMS7003;39936;51.058;17.220;2023-03-11T15:13:26;5;3;2
54021;PMS7003;39936;51.058;17.220;2023-03-11T15:17:25;5;4;2
54021;PMS7003;39936;51.058;17.220;2023-03-11T15:24:37;3;2;1
54021;PMS7003;39936;51.058;17.220;2023-03-11T15:32:51;8;7;5
54021;PMS7003;39936;51.058;17.220;2023-03-11T15:39:49;5;2;2
54021;PMS7003;39936;51.058;17.220;2023-03-11T15:43:31;6;5;3
54021;PMS7003;39936;51.058;17.220;2023-03-11T15:47:21;3;2;0
54021;PMS7003;39936;51.058;17.220;2023-03-11T15:51:04;4;3;1
54021;PMS7003;39936;51.058;17.220;2023-03-11T15:54:47;2;2;1
54021;PMS7003;39936;51.058;17.220;2023-03-11T15:58:16;6;5;4
54021;PMS7003;39936;51.058;17.220;2023-03-11T16:01:37;6;4;1
54021;PMS7003;39936;51.058;17.220;2023-03-11T16:05:35;4;4;2
54021;PMS7003;39936;51.058;17.220;2023-03-11T16:08:55;3;3;1
54021;PMS7003;39936;51.058;17.220;2023-03-11T16:12:25;4;4;2
54021;PMS7003;39936;51.058;17.220;2023-03-11T16:16:05;1;1;1
54021;PMS7003;39936;51.058;17.220;2023-03-11T16:19:58;1;1;0
54021;PMS7003;39936;51.058;17.220;2023-03-11T16:23:12;7;3;2
54021;PMS7003;39936;51.058;17.220;2023-03-11T16:27:01;3;2;0
54021;PMS7003;39936;51.058;17.220;2023-03-11T16:30:46;5;3;2
54021;PMS7003;39936;51.058;17.220;2023-03-11T16:35:04;4;2;0
54021;PMS7003;39936;51.058;17.220;2023-03-11T16:38:40;3;2;1
54021;PMS7003;39936;51.058;17.220;2023-03-11T16:42:10;2;2;0
54021;PMS7003;39936;51.058;17.220;2023-03-11T16:45:45;5;3;1
54021;PMS7003;39936;51.058;17.220;2023-03-11T16:49:33;1;1;0
54021;PMS7003;39936;51.058;17.220;2023-03-11T16:52:52;5;2;1
54021;PMS7003;39936;51.058;17.220;2023-03-11T16:56:33;2;2;0
54021;PMS7003;39936;51.058;17.220;2023-03-11T17:00:16;7;4;2
54021;PMS7003;39936;51.058;17.220;2023-03-11T17:03:47;1;1;0
54021;PMS7003;39936;51.058;17.220;2023-03-11T17:07:27;2;2;0
54021;PMS7003;39936;51.058;17.220;2023-03-11T17:11:01;2;2;1
54021;PMS7003;39936;51.058;17.220;2023-03-11T17:14:40;4;3;1
54021;PMS7003;39936;51.058;17.220;2023-03-11T17:18:21;6;3;1
54021;PMS7003;39936;51.058;17.220;2023-03-11T17:21:45;0;0;0
54021;PMS7003;39936;51.058;17.220;2023-03-11T17:25:48;6;4;2
54021;PMS7003;39936;51.058;17.220;2023-03-11T17:29:24;4;2;0
54021;PMS7003;39936;51.058;17.220;2023-03-11T17:33:04;4;4;3
54021;PMS7003;39936;51.058;17.220;2023-03-11T17:36:46;2;2;0
54021;PMS7003;39936;51.058;17.220;2023-03-11T17:40:10;5;4;2
54021;PMS7003;39936;51.058;17.220;2023-03-11T17:43:47;2;1;0
54021;PMS7003;39936;51.058;17.220;2023-03-11T17:48:02;1;1;0
54021;PMS7003;39936;51.058;17.220;2023-03-11T17:51:46;3;3;1
54021;PMS7003;39936;51.058;17.220;2023-03-11T17:55:08;3;3;0
54021;PMS7003;39936;51.058;17.220;2023-03-11T17:58:51;3;2;1
54021;PMS7003;39936;51.058;17.220;2023-03-11T18:02:33;3;2;1
54021;PMS7003;39936;51.058;17.220;2023-03-11T18:06:47;8;3;2
54021;PMS7003;39936;51.058;17.220;2023-03-11T18:10:53;5;3;1
54021;PMS7003;39936;51.058;17.220;2023-03-11T18:14:16;3;2;1
54021;PMS7003;39936;51.058;17.220;2023-03-11T18:17:36;5;3;2
54021;PMS7003;39936;51.058;17.220;2023-03-11T18:21:14;8;5;2
54021;PMS7003;39936;51.058;17.220;2023-03-11T18:28:56;10;7;5
54021;PMS7003;39936;51.058;17.220;2023-03-11T18:32:53;11;9;5
54021;PMS7003;39936;51.058;17.220;2023-03-11T18:36:35;8;5;3
54021;PMS7003;39936;51.058;17.220;2023-03-11T18:39:58;7;5;2
54021;PMS7003;39936;51.058;17.220;2023-03-11T18:43:31;3;3;2
54021;PMS7003;39936;51.058;17.220;2023-03-11T18:47:58;3;3;2
54021;PMS7003;39936;51.058;17.220;2023-03-11T18:51:40;7;5;4
54021;PMS7003;39936;51.058;17.220;2023-03-11T18:55:22;7;4;2
54021;PMS7003;39936;51.058;17.220;2023-03-11T19:02:54;8;5;3
54021;PMS7003;39936;51.058;17.220;2023-03-11T19:06:56;7;5;3
54021;PMS7003;39936;51.058;17.220;2023-03-11T19:10:14;9;6;2
54021;PMS7003;39936;51.058;17.220;2023-03-11T19:14:02;12;11;6
54021;PMS7003;39936;51.058;17.220;2023-03-11T19:17:25;2;2;2
54021;PMS7003;39936;51.058;17.220;2023-03-11T19:21:17;7;5;4
54021;PMS7003;39936;51.058;17.220;2023-03-11T19:24:54;6;3;2
54021;PMS7003;39936;51.058;17.220;2023-03-11T19:28:37;9;8;5
54021;PMS7003;39936;51.058;17.220;2023-03-11T19:32:10;10;8;4
54021;PMS7003;39936;51.058;17.220;2023-03-11T19:35:54;10;7;4
54021;PMS7003;39936;51.058;17.220;2023-03-11T19:43:34;14;10;5
54021;PMS7003;39936;51.058;17.220;2023-03-11T19:46:57;13;9;5
54021;PMS7003;39936;51.058;17.220;2023-03-11T19:50:26;15;11;6
54021;PMS7003;39936;51.058;17.220;2023-03-11T19:54:10;15;9;6
54021;PMS7003;39936;51.058;17.220;2023-03-11T19:57:48;10;9;5
54021;PMS7003;39936;51.058;17.220;2023-03-11T20:05:24;12;8;5
54021;PMS7003;39936;51.058;17.220;2023-03-11T20:08:42;11;10;6
54021;PMS7003;39936;51.058;17.220;2023-03-11T20:12:46;7;5;3
54021;PMS7003;39936;51.058;17.220;2023-03-11T20:16:20;8;8;5
54021;PMS7003;39936;51.058;17.220;2023-03-11T20:20:19;16;11;6
54021;PMS7003;39936;51.058;17.220;2023-03-11T20:24:12;14;9;6
54021;PMS7003;39936;51.058;17.220;2023-03-11T20:27:31;14;8;4
54021;PMS7003;39936;51.058;17.220;2023-03-11T20:30:50;10;7;4
54021;PMS7003;39936;51.058;17.220;2023-03-11T20:34:53;6;6;4
54021;PMS7003;39936;51.058;17.220;2023-03-11T20:38:17;8;6;4
54021;PMS7003;39936;51.058;17.220;2023-03-11T20:41:56;12;8;6
54021;PMS7003;39936;51.058;17.220;2023-03-11T20:49:19;10;8;4
54021;PMS7003;39936;51.058;17.220;2023-03-11T20:52:36;10;6;3
54021;PMS7003;39936;51.058;17.220;2023-03-11T20:56:51;9;5;3
54021;PMS7003;39936;51.058;17.220;2023-03-11T21:00:36;7;6;3
54021;PMS7003;39936;51.058;17.220;2023-03-11T21:04:01;7;6;4
54021;PMS7003;39936;51.058;17.220;2023-03-11T21:08:27;9;5;2
54021;PMS7003;39936;51.058;17.220;2023-03-11T21:12:07;6;4;3
54021;PMS7003;39936;51.058;17.220;2023-03-11T21:15:28;10;7;5
54021;PMS7003;39936;51.058;17.220;2023-03-11T21:19:08;11;9;4
54021;PMS7003;39936;51.058;17.220;2023-03-11T21:22:34;12;8;5
54021;PMS7003;39936;51.058;17.220;2023-03-11T21:29:56;12;7;3
54021;PMS7003;39936;51.058;17.220;2023-03-11T21:34:00;12;7;5
54021;PMS7003;39936;51.058;17.220;2023-03-11T21:37:20;7;6;4
54021;PMS7003;39936;51.058;17.220;2023-03-11T21:41:13;13;11;6
54021;PMS7003;39936;51.058;17.220;2023-03-11T21:44:59;13;11;6
54021;PMS7003;39936;51.058;17.220;2023-03-11T21:48:24;13;13;7
54021;PMS7003;39936;51.058;17.220;2023-03-11T21:52:02;17;14;10
54021;PMS7003;39936;51.058;17.220;2023-03-11T21:56:14;19;16;10
54021;PMS7003;39936;51.058;17.220;2023-03-11T21:59:31;18;15;10
54021;PMS7003;39936;51.058;17.220;2023-03-11T22:03:19;14;12;8
54021;PMS7003;39936;51.058;17.220;2023-03-11T22:10:34;14;13;6
54021;PMS7003;39936;51.058;17.220;2023-03-11T22:14:39;14;14;7
54021;PMS7003;39936;51.058;17.220;2023-03-11T22:18:44;19;16;8
54021;PMS7003;39936;51.058;17.220;2023-03-11T22:22:30;17;10;6
54021;PMS7003;39936;51.058;17.220;2023-03-11T22:26:04;13;12;8
54021;PMS7003;39936;51.058;17.220;2023-03-11T22:29:57;15;14;7
54021;PMS7003;39936;51.058;17.220;2023-03-11T22:33:17;18;15;8
54021;PMS7003;39936;51.058;17.220;2023-03-11T22:37:07;18;15;9
54021;PMS7003;39936;51.058;17.220;2023-03-11T22:41:18;18;14;7
54021;PMS7003;39936;51.058;17.220;2023-03-11T22:45:04;16;14;8
54021;PMS7003;39936;51.058;17.220;2023-03-11T22:48:49;15;10;6
54021;PMS7003;39936;51.058;17.220;2023-03-11T22:52:42;8;6;5
54021;PMS7003;39936;51.058;17.220;2023-03-11T23:00:32;12;9;5
54021;PMS7003;39936;51.058;17.220;2023-03-11T23:03:56;9;8;4
54021;PMS7003;39936;51.058;17.220;2023-03-11T23:07:29;22;15;8
54021;PMS7003;39936;51.058;17.220;2023-03-11T23:10:53;17;12;7
54021;PMS7003;39936;51.058;17.220;2023-03-11T23:15:09;17;15;8
54021;PMS7003;39936;51.058;17.220;2023-03-11T23:18:59;15;15;9
54021;PMS7003;39936;51.058;17.220;2023-03-11T23:22:22;22;17;8
54021;PMS7003;39936;51.058;17.220;2023-03-11T23:30:00;22;17;9
54021;PMS7003;39936;51.058;17.220;2023-03-11T23:33:55;21;15;8
54021;PMS7003;39936;51.058;17.220;2023-03-11T23:37:35;15;14;8
54021;PMS7003;39936;51.058;17.220;2023-03-11T23:41:19;22;18;10
54021;PMS7003;39936;51.058;17.220;2023-03-11T23:44:59;19;15;8
54021;PMS7003;39936;51.058;17.220;2023-03-11T23:49:09;11;8;5
54021;PMS7003;39936;51.058;17.220;2023-03-11T23:52:50;18;14;8
54021;PMS7003;39936;51.058;17.220;2023-03-11T23:56:12;13;13;7
54021;PMS7003;39936;51.058;17.220;2023-03-11T23:59:58;14;11;6
